sensor_id;sensor_type;location;lat;lon;timestamp;P1;durP1;ratioP1;P2;durP2;ratioP2
70169;SDS011;57543;45.442;9.212;2023-10-09T00:00:20;17.45;;;6.50;;
70169;SDS011;57543;45.442;9.212;2023-10-09T00:03:54;18.27;;;6.57;;
70169;SDS011;57543;45.442;9.212;2023-10-09T00:06:58;14.18;;;5.82;;
70169;SDS011;57543;45.442;9.212;2023-10-09T00:10:03;15.35;;;6.20;;
70169;SDS011;57543;45.442;9.212;2023-10-09T00:13:15;15.05;;;6.57;;
70169;SDS011;57543;45.442;9.212;2023-10-09T00:16:20;18.75;;;6.97;;
70169;SDS011;57543;45.442;9.212;2023-10-09T00:19:38;15.60;;;6.47;;
70169;SDS011;57543;45.442;9.212;2023-10-09T00:22:41;16.52;;;6.40;;
70169;SDS011;57543;45.442;9.212;2023-10-09T00:25:49;14.98;;;6.50;;
70169;SDS011;57543;45.442;9.212;2023-10-09T00:29:15;16.25;;;6.35;;
70169;SDS011;57543;45.442;9.212;2023-10-09T00:32:25;14.98;;;6.18;;
70169;SDS011;57543;45.442;9.212;2023-10-09T00:35:29;13.50;;;5.33;;
70169;SDS011;57543;45.442;9.212;2023-10-09T00:38:39;18.45;;;5.80;;
70169;SDS011;57543;45.442;9.212;2023-10-09T00:41:47;13.15;;;5.82;;
70169;SDS011;57543;45.442;9.212;2023-10-09T00:44:51;16.02;;;6.00;;
70169;SDS011;57543;45.442;9.212;2023-10-09T00:47:55;15.15;;;5.72;;
70169;SDS011;57543;45.442;9.212;2023-10-09T00:51:02;17.90;;;6.30;;
70169;SDS011;57543;45.442;9.212;2023-10-09T00:54:19;15.13;;;5.55;;
70169;SDS011;57543;45.442;9.212;2023-10-09T00:57:23;18.10;;;6.13;;
70169;SDS011;57543;45.442;9.212;2023-10-09T01:00:28;16.52;;;5.97;;
70169;SDS011;57543;45.442;9.212;2023-10-09T01:03:46;17.63;;;6.65;;
70169;SDS011;57543;45.442;9.212;2023-10-09T01:06:54;15.63;;;6.17;;
70169;SDS011;57543;45.442;9.212;2023-10-09T01:10:19;15.57;;;5.95;;
70169;SDS011;57543;45.442;9.212;2023-10-09T01:13:23;17.35;;;5.90;;
70169;SDS011;57543;45.442;9.212;2023-10-09T01:16:42;16.63;;;5.70;;
70169;SDS011;57543;45.442;9.212;2023-10-09T01:19:46;12.23;;;5.43;;
70169;SDS011;57543;45.442;9.212;2023-10-09T01:22:50;15.43;;;5.17;;
70169;SDS011;57543;45.442;9.212;2023-10-09T01:25:53;15.85;;;5.80;;
70169;SDS011;57543;45.442;9.212;2023-10-09T01:28:58;14.52;;;6.22;;
70169;SDS011;57543;45.442;9.212;2023-10-09T01:32:03;18.05;;;5.85;;
70169;SDS011;57543;45.442;9.212;2023-10-09T01:35:07;15.02;;;6.10;;
70169;SDS011;57543;45.442;9.212;2023-10-09T01:38:23;17.37;;;5.87;;
70169;SDS011;57543;45.442;9.212;2023-10-09T01:41:43;15.40;;;5.88;;
70169;SDS011;57543;45.442;9.212;2023-10-09T01:44:50;17.85;;;6.28;;
70169;SDS011;57543;45.442;9.212;2023-10-09T01:47:53;15.65;;;6.28;;
70169;SDS011;57543;45.442;9.212;2023-10-09T01:51:00;13.65;;;5.75;;
70169;SDS011;57543;45.442;9.212;2023-10-09T01:54:05;14.33;;;5.10;;
70169;SDS011;57543;45.442;9.212;2023-10-09T01:57:09;10.52;;;5.10;;
70169;SDS011;57543;45.442;9.212;2023-10-09T02:00:17;16.17;;;5.85;;
70169;SDS011;57543;45.442;9.212;2023-10-09T02:03:26;14.45;;;6.20;;
70169;SDS011;57543;45.442;9.212;2023-10-09T02:06:32;21.08;;;5.60;;
70169;SDS011;57543;45.442;9.212;2023-10-09T02:09:36;16.20;;;6.07;;
70169;SDS011;57543;45.442;9.212;2023-10-09T02:12:48;16.88;;;5.53;;
70169;SDS011;57543;45.442;9.212;2023-10-09T02:16:00;13.10;;;4.90;;
70169;SDS011;57543;45.442;9.212;2023-10-09T02:19:17;13.50;;;4.80;;
70169;SDS011;57543;45.442;9.212;2023-10-09T02:22:42;12.90;;;5.47;;
70169;SDS011;57543;45.442;9.212;2023-10-09T02:25:46;14.40;;;4.73;;
70169;SDS011;57543;45.442;9.212;2023-10-09T02:28:50;12.55;;;4.90;;
70169;SDS011;57543;45.442;9.212;2023-10-09T02:32:07;12.43;;;5.07;;
70169;SDS011;57543;45.442;9.212;2023-10-09T02:35:29;13.80;;;5.38;;
70169;SDS011;57543;45.442;9.212;2023-10-09T02:38:45;15.73;;;5.80;;
70169;SDS011;57543;45.442;9.212;2023-10-09T02:41:56;12.20;;;5.00;;
70169;SDS011;57543;45.442;9.212;2023-10-09T02:45:22;14.02;;;4.82;;
70169;SDS011;57543;45.442;9.212;2023-10-09T02:48:32;11.40;;;4.70;;
70169;SDS011;57543;45.442;9.212;2023-10-09T02:51:39;14.00;;;4.70;;
70169;SDS011;57543;45.442;9.212;2023-10-09T02:54:46;14.55;;;4.75;;
70169;SDS011;57543;45.442;9.212;2023-10-09T02:57:56;15.40;;;5.23;;
70169;SDS011;57543;45.442;9.212;2023-10-09T03:01:10;14.80;;;5.15;;
70169;SDS011;57543;45.442;9.212;2023-10-09T03:04:16;13.85;;;4.72;;
70169;SDS011;57543;45.442;9.212;2023-10-09T03:07:20;13.25;;;4.90;;
70169;SDS011;57543;45.442;9.212;2023-10-09T03:10:26;12.60;;;4.57;;
70169;SDS011;57543;45.442;9.212;2023-10-09T03:13:30;11.13;;;4.00;;
70169;SDS011;57543;45.442;9.212;2023-10-09T03:16:36;14.93;;;4.60;;
70169;SDS011;57543;45.442;9.212;2023-10-09T03:19:40;16.77;;;4.80;;
70169;SDS011;57543;45.442;9.212;2023-10-09T03:22:44;11.93;;;3.95;;
70169;SDS011;57543;45.442;9.212;2023-10-09T03:25:48;11.63;;;4.60;;
70169;SDS011;57543;45.442;9.212;2023-10-09T03:28:53;15.67;;;4.83;;
70169;SDS011;57543;45.442;9.212;2023-10-09T03:31:57;15.70;;;4.65;;
70169;SDS011;57543;45.442;9.212;2023-10-09T03:35:00;15.23;;;4.80;;
70169;SDS011;57543;45.442;9.212;2023-10-09T03:38:06;11.90;;;4.47;;
70169;SDS011;57543;45.442;9.212;2023-10-09T03:41:15;13.82;;;4.20;;
70169;SDS011;57543;45.442;9.212;2023-10-09T03:44:22;13.67;;;4.73;;
70169;SDS011;57543;45.442;9.212;2023-10-09T03:47:25;14.80;;;4.68;;
70169;SDS011;57543;45.442;9.212;2023-10-09T03:50:30;15.07;;;4.55;;
70169;SDS011;57543;45.442;9.212;2023-10-09T03:53:39;15.63;;;4.90;;
70169;SDS011;57543;45.442;9.212;2023-10-09T03:56:44;12.98;;;4.80;;
70169;SDS011;57543;45.442;9.212;2023-10-09T03:59:48;13.57;;;4.27;;
70169;SDS011;57543;45.442;9.212;2023-10-09T04:02:52;14.43;;;4.25;;
70169;SDS011;57543;45.442;9.212;2023-10-09T04:05:55;12.27;;;4.20;;
70169;SDS011;57543;45.442;9.212;2023-10-09T04:09:00;17.00;;;5.05;;
70169;SDS011;57543;45.442;9.212;2023-10-09T04:12:22;12.82;;;4.20;;
70169;SDS011;57543;45.442;9.212;2023-10-09T04:15:28;14.73;;;4.83;;
70169;SDS011;57543;45.442;9.212;2023-10-09T04:18:34;13.98;;;4.53;;
70169;SDS011;57543;45.442;9.212;2023-10-09T04:21:41;14.95;;;4.78;;
70169;SDS011;57543;45.442;9.212;2023-10-09T04:24:45;15.70;;;5.03;;
70169;SDS011;57543;45.442;9.212;2023-10-09T04:27:55;10.80;;;4.25;;
70169;SDS011;57543;45.442;9.212;2023-10-09T04:31:18;13.33;;;4.43;;
70169;SDS011;57543;45.442;9.212;2023-10-09T04:34:23;12.40;;;4.20;;
70169;SDS011;57543;45.442;9.212;2023-10-09T04:37:47;12.82;;;4.95;;
70169;SDS011;57543;45.442;9.212;2023-10-09T04:40:59;9.85;;;3.90;;
70169;SDS011;57543;45.442;9.212;2023-10-09T04:44:02;15.30;;;4.32;;
70169;SDS011;57543;45.442;9.212;2023-10-09T04:47:22;14.60;;;4.50;;
70169;SDS011;57543;45.442;9.212;2023-10-09T04:50:39;12.02;;;3.72;;
70169;SDS011;57543;45.442;9.212;2023-10-09T04:54:02;9.63;;;3.92;;
70169;SDS011;57543;45.442;9.212;2023-10-09T04:57:18;10.88;;;4.38;;
70169;SDS011;57543;45.442;9.212;2023-10-09T05:00:21;14.50;;;4.13;;
70169;SDS011;57543;45.442;9.212;2023-10-09T05:03:28;13.37;;;4.13;;
70169;SDS011;57543;45.442;9.212;2023-10-09T05:06:33;16.02;;;4.35;;
70169;SDS011;57543;45.442;9.212;2023-10-09T05:09:45;14.25;;;4.10;;
70169;SDS011;57543;45.442;9.212;2023-10-09T05:13:25;11.63;;;3.60;;
70169;SDS011;57543;45.442;9.212;2023-10-09T05:16:45;11.80;;;4.07;;
70169;SDS011;57543;45.442;9.212;2023-10-09T05:19:57;14.83;;;3.93;;
70169;SDS011;57543;45.442;9.212;2023-10-09T05:23:21;15.68;;;4.20;;
70169;SDS011;57543;45.442;9.212;2023-10-09T05:26:29;12.93;;;4.25;;
70169;SDS011;57543;45.442;9.212;2023-10-09T05:29:50;15.32;;;4.20;;
70169;SDS011;57543;45.442;9.212;2023-10-09T05:33:16;13.48;;;4.30;;
70169;SDS011;57543;45.442;9.212;2023-10-09T05:36:31;13.80;;;5.03;;
70169;SDS011;57543;45.442;9.212;2023-10-09T05:39:38;14.00;;;4.45;;
70169;SDS011;57543;45.442;9.212;2023-10-09T05:42:45;12.38;;;4.80;;
70169;SDS011;57543;45.442;9.212;2023-10-09T05:46:00;14.05;;;4.43;;
70169;SDS011;57543;45.442;9.212;2023-10-09T05:49:18;11.43;;;4.68;;
70169;SDS011;57543;45.442;9.212;2023-10-09T05:52:23;17.77;;;4.87;;
70169;SDS011;57543;45.442;9.212;2023-10-09T05:55:36;17.00;;;4.57;;
70169;SDS011;57543;45.442;9.212;2023-10-09T05:59:11;17.58;;;4.63;;
70169;SDS011;57543;45.442;9.212;2023-10-09T06:02:33;11.70;;;4.03;;
70169;SDS011;57543;45.442;9.212;2023-10-09T06:05:56;15.55;;;4.53;;
70169;SDS011;57543;45.442;9.212;2023-10-09T06:09:00;14.23;;;4.20;;
70169;SDS011;57543;45.442;9.212;2023-10-09T06:12:34;18.38;;;5.07;;
70169;SDS011;57543;45.442;9.212;2023-10-09T06:15:48;15.80;;;4.97;;
70169;SDS011;57543;45.442;9.212;2023-10-09T06:18:51;17.15;;;4.85;;
70169;SDS011;57543;45.442;9.212;2023-10-09T06:22:11;17.33;;;4.63;;
70169;SDS011;57543;45.442;9.212;2023-10-09T06:25:35;16.27;;;4.10;;
70169;SDS011;57543;45.442;9.212;2023-10-09T06:28:42;17.83;;;4.22;;
70169;SDS011;57543;45.442;9.212;2023-10-09T06:31:53;14.90;;;4.30;;
70169;SDS011;57543;45.442;9.212;2023-10-09T06:35:19;19.05;;;4.97;;
70169;SDS011;57543;45.442;9.212;2023-10-09T06:38:25;13.70;;;4.43;;
70169;SDS011;57543;45.442;9.212;2023-10-09T06:41:43;13.50;;;4.27;;
70169;SDS011;57543;45.442;9.212;2023-10-09T06:44:48;13.43;;;4.50;;
70169;SDS011;57543;45.442;9.212;2023-10-09T06:47:58;12.55;;;4.60;;
70169;SDS011;57543;45.442;9.212;2023-10-09T06:51:30;15.82;;;5.32;;
70169;SDS011;57543;45.442;9.212;2023-10-09T06:54:34;12.25;;;4.95;;
70169;SDS011;57543;45.442;9.212;2023-10-09T06:57:41;28.43;;;5.97;;
70169;SDS011;57543;45.442;9.212;2023-10-09T07:00:52;16.55;;;4.93;;
70169;SDS011;57543;45.442;9.212;2023-10-09T07:04:01;14.98;;;5.07;;
70169;SDS011;57543;45.442;9.212;2023-10-09T07:07:22;15.77;;;5.18;;
70169;SDS011;57543;45.442;9.212;2023-10-09T07:10:27;21.85;;;5.38;;
70169;SDS011;57543;45.442;9.212;2023-10-09T07:13:42;19.07;;;5.40;;
70169;SDS011;57543;45.442;9.212;2023-10-09T07:16:51;13.07;;;5.05;;
70169;SDS011;57543;45.442;9.212;2023-10-09T07:20:01;17.88;;;5.07;;
70169;SDS011;57543;45.442;9.212;2023-10-09T07:23:17;20.23;;;6.20;;
70169;SDS011;57543;45.442;9.212;2023-10-09T07:26:21;17.50;;;4.63;;
70169;SDS011;57543;45.442;9.212;2023-10-09T07:29:40;19.17;;;4.63;;
70169;SDS011;57543;45.442;9.212;2023-10-09T07:33:02;15.95;;;5.20;;
70169;SDS011;57543;45.442;9.212;2023-10-09T07:36:13;15.02;;;4.35;;
70169;SDS011;57543;45.442;9.212;2023-10-09T07:39:16;13.90;;;4.53;;
70169;SDS011;57543;45.442;9.212;2023-10-09T07:42:20;12.98;;;4.32;;
70169;SDS011;57543;45.442;9.212;2023-10-09T07:45:36;16.93;;;4.80;;
70169;SDS011;57543;45.442;9.212;2023-10-09T07:48:39;16.73;;;4.93;;
70169;SDS011;57543;45.442;9.212;2023-10-09T07:51:58;25.42;;;4.93;;
70169;SDS011;57543;45.442;9.212;2023-10-09T07:55:02;22.88;;;5.38;;
70169;SDS011;57543;45.442;9.212;2023-10-09T07:58:06;13.45;;;4.35;;
70169;SDS011;57543;45.442;9.212;2023-10-09T08:01:16;21.60;;;5.43;;
70169;SDS011;57543;45.442;9.212;2023-10-09T08:04:20;15.57;;;4.55;;
70169;SDS011;57543;45.442;9.212;2023-10-09T08:07:40;14.88;;;4.22;;
70169;SDS011;57543;45.442;9.212;2023-10-09T08:10:57;23.88;;;5.55;;
70169;SDS011;57543;45.442;9.212;2023-10-09T08:14:20;16.63;;;4.35;;
70169;SDS011;57543;45.442;9.212;2023-10-09T08:17:38;16.93;;;3.93;;
70169;SDS011;57543;45.442;9.212;2023-10-09T08:20:42;17.40;;;3.50;;
70169;SDS011;57543;45.442;9.212;2023-10-09T08:24:01;13.60;;;3.80;;
70169;SDS011;57543;45.442;9.212;2023-10-09T08:27:08;17.08;;;4.18;;
70169;SDS011;57543;45.442;9.212;2023-10-09T08:30:31;13.90;;;3.45;;
70169;SDS011;57543;45.442;9.212;2023-10-09T08:33:52;20.87;;;4.17;;
70169;SDS011;57543;45.442;9.212;2023-10-09T08:37:01;19.55;;;4.35;;
70169;SDS011;57543;45.442;9.212;2023-10-09T08:40:04;17.85;;;4.30;;
70169;SDS011;57543;45.442;9.212;2023-10-09T08:43:14;19.30;;;4.57;;
70169;SDS011;57543;45.442;9.212;2023-10-09T08:46:26;17.33;;;3.97;;
70169;SDS011;57543;45.442;9.212;2023-10-09T08:49:31;15.93;;;3.93;;
70169;SDS011;57543;45.442;9.212;2023-10-09T08:52:37;18.50;;;4.75;;
70169;SDS011;57543;45.442;9.212;2023-10-09T08:55:40;13.70;;;4.45;;
70169;SDS011;57543;45.442;9.212;2023-10-09T08:58:44;22.48;;;4.53;;
70169;SDS011;57543;45.442;9.212;2023-10-09T09:01:49;17.25;;;3.78;;
70169;SDS011;57543;45.442;9.212;2023-10-09T09:04:54;14.67;;;4.07;;
70169;SDS011;57543;45.442;9.212;2023-10-09T09:07:58;16.20;;;3.83;;
70169;SDS011;57543;45.442;9.212;2023-10-09T09:11:09;15.73;;;3.97;;
70169;SDS011;57543;45.442;9.212;2023-10-09T09:14:36;15.50;;;4.60;;
70169;SDS011;57543;45.442;9.212;2023-10-09T09:17:40;14.35;;;4.45;;
70169;SDS011;57543;45.442;9.212;2023-10-09T09:20:45;23.33;;;4.50;;
70169;SDS011;57543;45.442;9.212;2023-10-09T09:23:57;14.35;;;4.05;;
70169;SDS011;57543;45.442;9.212;2023-10-09T09:27:04;18.15;;;4.72;;
70169;SDS011;57543;45.442;9.212;2023-10-09T09:30:22;14.73;;;3.70;;
70169;SDS011;57543;45.442;9.212;2023-10-09T09:33:27;19.85;;;4.22;;
70169;SDS011;57543;45.442;9.212;2023-10-09T09:36:34;9.67;;;3.30;;
70169;SDS011;57543;45.442;9.212;2023-10-09T09:39:37;18.75;;;4.38;;
70169;SDS011;57543;45.442;9.212;2023-10-09T09:42:42;16.05;;;3.35;;
70169;SDS011;57543;45.442;9.212;2023-10-09T09:45:48;14.52;;;3.38;;
70169;SDS011;57543;45.442;9.212;2023-10-09T09:48:56;14.43;;;3.65;;
70169;SDS011;57543;45.442;9.212;2023-10-09T09:52:03;15.80;;;3.80;;
70169;SDS011;57543;45.442;9.212;2023-10-09T09:55:13;14.95;;;3.40;;
70169;SDS011;57543;45.442;9.212;2023-10-09T09:58:26;15.65;;;3.45;;
70169;SDS011;57543;45.442;9.212;2023-10-09T10:01:45;19.30;;;3.60;;
70169;SDS011;57543;45.442;9.212;2023-10-09T10:05:01;12.77;;;4.05;;
70169;SDS011;57543;45.442;9.212;2023-10-09T10:08:09;15.07;;;3.70;;
70169;SDS011;57543;45.442;9.212;2023-10-09T10:14:54;17.63;;;3.97;;
70169;SDS011;57543;45.442;9.212;2023-10-09T10:27:33;16.50;;;3.80;;
70169;SDS011;57543;45.442;9.212;2023-10-09T10:30:48;12.93;;;3.33;;
70169;SDS011;57543;45.442;9.212;2023-10-09T10:37:01;14.85;;;3.47;;
70169;SDS011;57543;45.442;9.212;2023-10-09T10:40:05;13.03;;;3.67;;
70169;SDS011;57543;45.442;9.212;2023-10-09T10:43:16;13.70;;;3.45;;
70169;SDS011;57543;45.442;9.212;2023-10-09T10:46:40;22.73;;;4.38;;
70169;SDS011;57543;45.442;9.212;2023-10-09T10:49:50;16.05;;;3.50;;
70169;SDS011;57543;45.442;9.212;2023-10-09T10:53:08;14.25;;;2.85;;
70169;SDS011;57543;45.442;9.212;2023-10-09T10:56:19;14.60;;;3.40;;
70169;SDS011;57543;45.442;9.212;2023-10-09T10:59:31;14.55;;;3.28;;
70169;SDS011;57543;45.442;9.212;2023-10-09T11:02:42;14.23;;;3.20;;
70169;SDS011;57543;45.442;9.212;2023-10-09T11:05:47;18.00;;;3.40;;
70169;SDS011;57543;45.442;9.212;2023-10-09T11:08:54;14.27;;;4.20;;
70169;SDS011;57543;45.442;9.212;2023-10-09T11:12:03;14.30;;;3.87;;
70169;SDS011;57543;45.442;9.212;2023-10-09T11:15:32;13.98;;;3.17;;
70169;SDS011;57543;45.442;9.212;2023-10-09T11:19:01;18.30;;;3.42;;
70169;SDS011;57543;45.442;9.212;2023-10-09T11:22:16;14.95;;;3.28;;
70169;SDS011;57543;45.442;9.212;2023-10-09T11:25:32;12.15;;;3.45;;
70169;SDS011;57543;45.442;9.212;2023-10-09T11:28:36;16.63;;;3.30;;
70169;SDS011;57543;45.442;9.212;2023-10-09T11:32:01;14.13;;;3.40;;
70169;SDS011;57543;45.442;9.212;2023-10-09T11:35:09;15.35;;;3.67;;
70169;SDS011;57543;45.442;9.212;2023-10-09T11:38:37;18.20;;;3.65;;
70169;SDS011;57543;45.442;9.212;2023-10-09T11:41:42;17.85;;;3.97;;
70169;SDS011;57543;45.442;9.212;2023-10-09T11:44:46;12.30;;;3.50;;
70169;SDS011;57543;45.442;9.212;2023-10-09T11:48:15;13.63;;;3.03;;
70169;SDS011;57543;45.442;9.212;2023-10-09T11:51:24;13.68;;;3.60;;
70169;SDS011;57543;45.442;9.212;2023-10-09T11:54:29;13.35;;;3.17;;
70169;SDS011;57543;45.442;9.212;2023-10-09T11:57:36;15.63;;;3.38;;
70169;SDS011;57543;45.442;9.212;2023-10-09T12:00:43;13.27;;;3.47;;
70169;SDS011;57543;45.442;9.212;2023-10-09T12:03:50;13.05;;;3.05;;
70169;SDS011;57543;45.442;9.212;2023-10-09T12:06:56;13.40;;;3.22;;
70169;SDS011;57543;45.442;9.212;2023-10-09T12:10:09;14.32;;;3.40;;
70169;SDS011;57543;45.442;9.212;2023-10-09T12:13:14;14.85;;;3.42;;
70169;SDS011;57543;45.442;9.212;2023-10-09T12:16:19;13.73;;;3.23;;
70169;SDS011;57543;45.442;9.212;2023-10-09T12:19:25;12.88;;;2.90;;
70169;SDS011;57543;45.442;9.212;2023-10-09T12:22:31;15.00;;;3.60;;
70169;SDS011;57543;45.442;9.212;2023-10-09T12:25:36;16.98;;;2.78;;
70169;SDS011;57543;45.442;9.212;2023-10-09T12:28:40;11.43;;;2.83;;
70169;SDS011;57543;45.442;9.212;2023-10-09T12:31:52;12.50;;;2.77;;
70169;SDS011;57543;45.442;9.212;2023-10-09T12:35:01;16.25;;;3.70;;
70169;SDS011;57543;45.442;9.212;2023-10-09T12:38:05;16.40;;;3.53;;
70169;SDS011;57543;45.442;9.212;2023-10-09T12:41:13;18.75;;;3.05;;
70169;SDS011;57543;45.442;9.212;2023-10-09T12:44:28;14.70;;;3.30;;
70169;SDS011;57543;45.442;9.212;2023-10-09T12:47:31;15.67;;;3.47;;
70169;SDS011;57543;45.442;9.212;2023-10-09T12:50:36;17.85;;;3.05;;
70169;SDS011;57543;45.442;9.212;2023-10-09T12:53:47;13.13;;;3.25;;
70169;SDS011;57543;45.442;9.212;2023-10-09T12:56:54;16.13;;;3.17;;
70169;SDS011;57543;45.442;9.212;2023-10-09T12:59:59;15.20;;;3.13;;
70169;SDS011;57543;45.442;9.212;2023-10-09T13:03:04;18.33;;;3.67;;
70169;SDS011;57543;45.442;9.212;2023-10-09T13:06:17;11.93;;;3.25;;
70169;SDS011;57543;45.442;9.212;2023-10-09T13:09:27;17.95;;;3.30;;
70169;SDS011;57543;45.442;9.212;2023-10-09T13:12:39;12.30;;;3.13;;
70169;SDS011;57543;45.442;9.212;2023-10-09T13:15:45;16.02;;;3.35;;
70169;SDS011;57543;45.442;9.212;2023-10-09T13:18:49;15.10;;;3.07;;
70169;SDS011;57543;45.442;9.212;2023-10-09T13:21:57;16.33;;;3.13;;
70169;SDS011;57543;45.442;9.212;2023-10-09T13:25:01;19.10;;;3.40;;
70169;SDS011;57543;45.442;9.212;2023-10-09T13:28:07;18.08;;;3.03;;
70169;SDS011;57543;45.442;9.212;2023-10-09T13:31:14;11.23;;;3.17;;
70169;SDS011;57543;45.442;9.212;2023-10-09T13:34:18;14.90;;;3.20;;
70169;SDS011;57543;45.442;9.212;2023-10-09T13:37:21;13.45;;;3.20;;
70169;SDS011;57543;45.442;9.212;2023-10-09T13:40:27;16.33;;;3.97;;
70169;SDS011;57543;45.442;9.212;2023-10-09T13:43:31;11.63;;;3.15;;
70169;SDS011;57543;45.442;9.212;2023-10-09T13:46:34;13.05;;;3.33;;
70169;SDS011;57543;45.442;9.212;2023-10-09T13:49:45;13.13;;;3.13;;
70169;SDS011;57543;45.442;9.212;2023-10-09T13:52:48;12.02;;;3.30;;
70169;SDS011;57543;45.442;9.212;2023-10-09T13:55:52;11.52;;;3.53;;
70169;SDS011;57543;45.442;9.212;2023-10-09T13:58:58;15.30;;;3.15;;
70169;SDS011;57543;45.442;9.212;2023-10-09T14:02:06;13.70;;;3.10;;
70169;SDS011;57543;45.442;9.212;2023-10-09T14:05:13;14.73;;;3.37;;
70169;SDS011;57543;45.442;9.212;2023-10-09T14:08:18;14.07;;;3.28;;
70169;SDS011;57543;45.442;9.212;2023-10-09T14:11:25;12.75;;;3.72;;
70169;SDS011;57543;45.442;9.212;2023-10-09T14:14:29;14.80;;;3.83;;
70169;SDS011;57543;45.442;9.212;2023-10-09T14:17:34;14.38;;;3.85;;
70169;SDS011;57543;45.442;9.212;2023-10-09T14:20:38;13.63;;;3.63;;
70169;SDS011;57543;45.442;9.212;2023-10-09T14:23:47;13.45;;;4.00;;
70169;SDS011;57543;45.442;9.212;2023-10-09T14:26:51;20.10;;;3.85;;
70169;SDS011;57543;45.442;9.212;2023-10-09T14:29:55;14.70;;;3.75;;
70169;SDS011;57543;45.442;9.212;2023-10-09T14:33:02;14.70;;;3.45;;
70169;SDS011;57543;45.442;9.212;2023-10-09T14:36:06;12.70;;;3.60;;
70169;SDS011;57543;45.442;9.212;2023-10-09T14:39:10;15.05;;;4.10;;
70169;SDS011;57543;45.442;9.212;2023-10-09T14:42:24;10.48;;;3.20;;
70169;SDS011;57543;45.442;9.212;2023-10-09T14:45:31;15.35;;;3.58;;
70169;SDS011;57543;45.442;9.212;2023-10-09T14:48:34;12.00;;;3.60;;
70169;SDS011;57543;45.442;9.212;2023-10-09T14:51:40;15.23;;;3.90;;
70169;SDS011;57543;45.442;9.212;2023-10-09T14:54:47;15.32;;;3.90;;
70169;SDS011;57543;45.442;9.212;2023-10-09T14:57:53;14.38;;;3.92;;
70169;SDS011;57543;45.442;9.212;2023-10-09T15:00:57;16.25;;;3.85;;
70169;SDS011;57543;45.442;9.212;2023-10-09T15:04:00;14.93;;;3.63;;
70169;SDS011;57543;45.442;9.212;2023-10-09T15:07:04;16.00;;;4.87;;
70169;SDS011;57543;45.442;9.212;2023-10-09T15:10:11;13.73;;;3.72;;
70169;SDS011;57543;45.442;9.212;2023-10-09T15:13:21;15.23;;;3.63;;
70169;SDS011;57543;45.442;9.212;2023-10-09T15:16:30;16.80;;;3.88;;
70169;SDS011;57543;45.442;9.212;2023-10-09T15:19:35;13.38;;;3.97;;
70169;SDS011;57543;45.442;9.212;2023-10-09T15:22:39;14.33;;;3.80;;
70169;SDS011;57543;45.442;9.212;2023-10-09T15:25:44;15.88;;;4.60;;
70169;SDS011;57543;45.442;9.212;2023-10-09T15:28:53;16.55;;;4.40;;
70169;SDS011;57543;45.442;9.212;2023-10-09T15:32:00;17.90;;;3.85;;
70169;SDS011;57543;45.442;9.212;2023-10-09T15:35:17;13.15;;;3.55;;
70169;SDS011;57543;45.442;9.212;2023-10-09T15:38:22;14.27;;;3.73;;
70169;SDS011;57543;45.442;9.212;2023-10-09T15:41:28;14.07;;;3.95;;
70169;SDS011;57543;45.442;9.212;2023-10-09T15:44:37;14.48;;;4.18;;
70169;SDS011;57543;45.442;9.212;2023-10-09T15:47:41;20.08;;;4.82;;
70169;SDS011;57543;45.442;9.212;2023-10-09T15:50:48;13.38;;;4.00;;
70169;SDS011;57543;45.442;9.212;2023-10-09T15:53:52;16.20;;;4.20;;
70169;SDS011;57543;45.442;9.212;2023-10-09T15:56:56;15.63;;;5.15;;
70169;SDS011;57543;45.442;9.212;2023-10-09T16:00:00;17.15;;;5.07;;
70169;SDS011;57543;45.442;9.212;2023-10-09T16:03:04;16.63;;;4.05;;
70169;SDS011;57543;45.442;9.212;2023-10-09T16:06:17;16.77;;;4.10;;
70169;SDS011;57543;45.442;9.212;2023-10-09T16:09:21;16.27;;;3.90;;
70169;SDS011;57543;45.442;9.212;2023-10-09T16:12:25;13.30;;;3.50;;
70169;SDS011;57543;45.442;9.212;2023-10-09T16:15:40;14.55;;;4.10;;
70169;SDS011;57543;45.442;9.212;2023-10-09T16:19:04;15.55;;;3.47;;
70169;SDS011;57543;45.442;9.212;2023-10-09T16:22:07;11.60;;;3.58;;
70169;SDS011;57543;45.442;9.212;2023-10-09T16:25:16;13.30;;;3.70;;
70169;SDS011;57543;45.442;9.212;2023-10-09T16:28:23;12.95;;;3.40;;
70169;SDS011;57543;45.442;9.212;2023-10-09T16:31:28;14.10;;;3.60;;
70169;SDS011;57543;45.442;9.212;2023-10-09T16:34:38;12.23;;;3.85;;
70169;SDS011;57543;45.442;9.212;2023-10-09T16:37:46;18.80;;;3.95;;
70169;SDS011;57543;45.442;9.212;2023-10-09T16:40:52;15.13;;;3.77;;
70169;SDS011;57543;45.442;9.212;2023-10-09T16:43:57;15.75;;;3.70;;
70169;SDS011;57543;45.442;9.212;2023-10-09T16:47:03;13.93;;;4.25;;
70169;SDS011;57543;45.442;9.212;2023-10-09T16:50:08;15.65;;;4.28;;
70169;SDS011;57543;45.442;9.212;2023-10-09T16:53:15;14.73;;;4.15;;
70169;SDS011;57543;45.442;9.212;2023-10-09T16:56:22;15.03;;;3.73;;
70169;SDS011;57543;45.442;9.212;2023-10-09T16:59:26;11.50;;;3.67;;
70169;SDS011;57543;45.442;9.212;2023-10-09T17:02:29;16.90;;;4.10;;
70169;SDS011;57543;45.442;9.212;2023-10-09T17:05:34;15.48;;;3.67;;
70169;SDS011;57543;45.442;9.212;2023-10-09T17:08:58;14.00;;;4.10;;
70169;SDS011;57543;45.442;9.212;2023-10-09T17:12:03;12.20;;;3.83;;
70169;SDS011;57543;45.442;9.212;2023-10-09T17:15:07;12.55;;;4.20;;
70169;SDS011;57543;45.442;9.212;2023-10-09T17:18:11;14.70;;;4.43;;
70169;SDS011;57543;45.442;9.212;2023-10-09T17:21:15;13.07;;;4.07;;
70169;SDS011;57543;45.442;9.212;2023-10-09T17:24:19;14.38;;;4.43;;
70169;SDS011;57543;45.442;9.212;2023-10-09T17:27:28;12.53;;;4.17;;
70169;SDS011;57543;45.442;9.212;2023-10-09T17:30:32;16.58;;;4.88;;
70169;SDS011;57543;45.442;9.212;2023-10-09T17:33:37;13.10;;;4.50;;
70169;SDS011;57543;45.442;9.212;2023-10-09T17:36:40;12.88;;;4.60;;
70169;SDS011;57543;45.442;9.212;2023-10-09T17:39:44;15.32;;;5.43;;
70169;SDS011;57543;45.442;9.212;2023-10-09T17:42:47;15.93;;;5.40;;
70169;SDS011;57543;45.442;9.212;2023-10-09T17:45:53;17.13;;;4.18;;
70169;SDS011;57543;45.442;9.212;2023-10-09T17:48:57;15.05;;;4.68;;
70169;SDS011;57543;45.442;9.212;2023-10-09T17:52:01;16.85;;;4.35;;
70169;SDS011;57543;45.442;9.212;2023-10-09T17:55:06;15.52;;;4.93;;
70169;SDS011;57543;45.442;9.212;2023-10-09T17:58:12;17.20;;;4.37;;
70169;SDS011;57543;45.442;9.212;2023-10-09T18:01:16;12.93;;;4.70;;
70169;SDS011;57543;45.442;9.212;2023-10-09T18:04:23;13.50;;;4.72;;
70169;SDS011;57543;45.442;9.212;2023-10-09T18:07:28;14.00;;;4.70;;
70169;SDS011;57543;45.442;9.212;2023-10-09T18:10:35;12.00;;;4.63;;
70169;SDS011;57543;45.442;9.212;2023-10-09T18:13:43;13.80;;;5.20;;
70169;SDS011;57543;45.442;9.212;2023-10-09T18:16:47;12.77;;;4.90;;
70169;SDS011;57543;45.442;9.212;2023-10-09T18:19:51;11.80;;;4.85;;
70169;SDS011;57543;45.442;9.212;2023-10-09T18:22:57;12.50;;;5.05;;
70169;SDS011;57543;45.442;9.212;2023-10-09T18:26:05;14.75;;;5.50;;
70169;SDS011;57543;45.442;9.212;2023-10-09T18:29:10;13.27;;;5.00;;
70169;SDS011;57543;45.442;9.212;2023-10-09T18:32:16;11.77;;;4.80;;
70169;SDS011;57543;45.442;9.212;2023-10-09T18:35:20;9.73;;;4.93;;
70169;SDS011;57543;45.442;9.212;2023-10-09T18:38:23;12.73;;;5.10;;
70169;SDS011;57543;45.442;9.212;2023-10-09T18:41:31;11.27;;;5.18;;
70169;SDS011;57543;45.442;9.212;2023-10-09T18:44:35;10.47;;;4.70;;
70169;SDS011;57543;45.442;9.212;2023-10-09T18:47:38;11.48;;;4.80;;
70169;SDS011;57543;45.442;9.212;2023-10-09T18:50:42;14.15;;;5.53;;
70169;SDS011;57543;45.442;9.212;2023-10-09T18:53:46;12.30;;;5.13;;
70169;SDS011;57543;45.442;9.212;2023-10-09T18:56:50;13.23;;;5.65;;
70169;SDS011;57543;45.442;9.212;2023-10-09T18:59:55;13.67;;;5.50;;